sensor_id;sensor_type;location;lat;lon;timestamp;pressure;altitude;pressure_sealevel;temperature;humidity
4576;BME280;2300;51.874;8.430;2022-11-04T00:01:19;99216.94;;;11.42;100.00
4576;BME280;2300;51.874;8.430;2022-11-04T00:03:46;99208.69;;;11.47;100.00
4576;BME280;2300;51.874;8.430;2022-11-04T00:06:14;99203.44;;;11.40;100.00
4576;BME280;2300;51.874;8.430;2022-11-04T00:08:41;99235.06;;;11.43;100.00
4576;BME280;2300;51.874;8.430;2022-11-04T00:11:08;99234.50;;;11.46;100.00
4576;BME280;2300;51.874;8.430;2022-11-04T00:13:52;99227.91;;;11.42;100.00
4576;BME280;2300;51.874;8.430;2022-11-04T00:16:19;99212.00;;;11.44;100.00
4576;BME280;2300;51.874;8.430;2022-11-04T00:19:03;99241.66;;;11.47;100.00
4576;BME280;2300;51.874;8.430;2022-11-04T00:21:31;99246.06;;;11.43;100.00
4576;BME280;2300;51.874;8.430;2022-11-04T00:24:15;99237.28;;;11.51;99.84
4576;BME280;2300;51.874;8.430;2022-11-04T00:26:59;99217.50;;;11.59;99.23
4576;BME280;2300;51.874;8.430;2022-11-04T00:29:43;99232.06;;;11.59;98.81
4576;BME280;2300;51.874;8.430;2022-11-04T00:32:09;99229.84;;;11.51;98.68
4576;BME280;2300;51.874;8.430;2022-11-04T00:34:54;99238.91;;;11.47;99.22
4576;BME280;2300;51.874;8.430;2022-11-04T00:37:22;99236.16;;;11.47;99.38
4576;BME280;2300;51.874;8.430;2022-11-04T00:39:48;99244.97;;;11.49;99.71
4576;BME280;2300;51.874;8.430;2022-11-04T00:42:15;99245.50;;;11.51;99.39
4576;BME280;2300;51.874;8.430;2022-11-04T00:44:41;99245.50;;;11.56;98.96
4576;BME280;2300;51.874;8.430;2022-11-04T00:47:08;99257.34;;;11.56;98.52
4576;BME280;2300;51.874;8.430;2022-11-04T00:49:34;99261.22;;;11.55;98.41
4576;BME280;2300;51.874;8.430;2022-11-04T00:52:01;99257.63;;;11.50;97.86
4576;BME280;2300;51.874;8.430;2022-11-04T00:54:29;99264.22;;;11.54;97.21
4576;BME280;2300;51.874;8.430;2022-11-04T00:56:55;99272.47;;;11.49;97.02
4576;BME280;2300;51.874;8.430;2022-11-04T00:59:22;99271.88;;;11.42;97.83
4576;BME280;2300;51.874;8.430;2022-11-04T01:01:48;99277.97;;;11.49;98.07
4576;BME280;2300;51.874;8.430;2022-11-04T01:04:15;99250.16;;;11.35;97.37
4576;BME280;2300;51.874;8.430;2022-11-04T01:06:41;99257.31;;;11.36;97.02
4576;BME280;2300;51.874;8.430;2022-11-04T01:09:10;99260.63;;;11.38;97.29
4576;BME280;2300;51.874;8.430;2022-11-04T01:11:39;99261.44;;;11.39;96.92
4576;BME280;2300;51.874;8.430;2022-11-04T01:14:05;99268.59;;;11.30;96.32
4576;BME280;2300;51.874;8.430;2022-11-04T01:16:32;99264.66;;;11.05;96.02
4576;BME280;2300;51.874;8.430;2022-11-04T01:18:59;99296.59;;;11.26;96.12
4576;BME280;2300;51.874;8.430;2022-11-04T01:21:26;99308.06;;;11.08;95.63
4576;BME280;2300;51.874;8.430;2022-11-04T01:23:53;99336.09;;;11.10;95.20
4576;BME280;2300;51.874;8.430;2022-11-04T01:26:21;99338.53;;;11.02;94.80
4576;BME280;2300;51.874;8.430;2022-11-04T01:28:50;99323.28;;;10.79;94.46
4576;BME280;2300;51.874;8.430;2022-11-04T01:31:18;99333.78;;;10.87;94.20
4576;BME280;2300;51.874;8.430;2022-11-04T01:33:46;99342.03;;;10.87;93.34
4576;BME280;2300;51.874;8.430;2022-11-04T01:36:13;99357.66;;;10.81;92.90
4576;BME280;2300;51.874;8.430;2022-11-04T01:38:39;99369.66;;;10.70;92.56
4576;BME280;2300;51.874;8.430;2022-11-04T01:41:08;99376.44;;;10.63;93.30
4576;BME280;2300;51.874;8.430;2022-11-04T01:43:45;99389.06;;;10.59;92.89
4576;BME280;2300;51.874;8.430;2022-11-04T01:46:21;99401.69;;;10.60;93.37
4576;BME280;2300;51.874;8.430;2022-11-04T01:48:51;99388.47;;;10.52;93.22
4576;BME280;2300;51.874;8.430;2022-11-04T01:51:20;99394.22;;;10.50;93.26
4576;BME280;2300;51.874;8.430;2022-11-04T01:53:49;99387.91;;;10.50;93.42
4576;BME280;2300;51.874;8.430;2022-11-04T01:56:16;99387.69;;;10.56;93.65
4576;BME280;2300;51.874;8.430;2022-11-04T01:58:47;99397.00;;;10.55;93.37
4576;BME280;2300;51.874;8.430;2022-11-04T02:01:16;99404.94;;;10.52;92.99
4576;BME280;2300;51.874;8.430;2022-11-04T02:03:47;99391.47;;;10.50;93.19
4576;BME280;2300;51.874;8.430;2022-11-04T02:06:15;99403.56;;;10.54;93.65
4576;BME280;2300;51.874;8.430;2022-11-04T02:08:44;99393.13;;;10.51;93.20
4576;BME280;2300;51.874;8.430;2022-11-04T02:11:11;99402.63;;;10.38;93.06
4576;BME280;2300;51.874;8.430;2022-11-04T02:13:58;99405.38;;;10.38;92.65
4576;BME280;2300;51.874;8.430;2022-11-04T02:16:33;99388.28;;;10.31;92.28
4576;BME280;2300;51.874;8.430;2022-11-04T02:19:19;99389.91;;;10.27;92.09
4576;BME280;2300;51.874;8.430;2022-11-04T02:22:09;99379.22;;;10.26;92.46
4576;BME280;2300;51.874;8.430;2022-11-04T02:25:00;99396.56;;;10.36;92.38
4576;BME280;2300;51.874;8.430;2022-11-04T02:27:51;99393.31;;;10.39;92.76
4576;BME280;2300;51.874;8.430;2022-11-04T02:30:27;99397.13;;;10.38;92.82
4576;BME280;2300;51.874;8.430;2022-11-04T02:33:16;99390.31;;;10.41;92.70
4576;BME280;2300;51.874;8.430;2022-11-04T02:35:52;99392.81;;;10.48;92.50
4576;BME280;2300;51.874;8.430;2022-11-04T02:38:29;99382.84;;;10.36;92.81
4576;BME280;2300;51.874;8.430;2022-11-04T02:41:06;99387.78;;;10.34;92.50
4576;BME280;2300;51.874;8.430;2022-11-04T02:43:44;99391.56;;;10.28;92.02
4576;BME280;2300;51.874;8.430;2022-11-04T02:46:17;99401.88;;;10.21;92.38
4576;BME280;2300;51.874;8.430;2022-11-04T02:48:51;99397.00;;;10.23;92.51
4576;BME280;2300;51.874;8.430;2022-11-04T02:51:21;99400.47;;;10.14;92.49
4576;BME280;2300;51.874;8.430;2022-11-04T02:53:59;99397.31;;;10.00;93.16
4576;BME280;2300;51.874;8.430;2022-11-04T02:56:30;99396.34;;;9.84;93.53
4576;BME280;2300;51.874;8.430;2022-11-04T02:58:59;99408.25;;;9.95;93.63
4576;BME280;2300;51.874;8.430;2022-11-04T03:01:33;99409.63;;;9.97;93.55
4576;BME280;2300;51.874;8.430;2022-11-04T03:04:04;99404.69;;;9.94;93.99
4576;BME280;2300;51.874;8.430;2022-11-04T03:06:33;99403.84;;;9.94;93.96
4576;BME280;2300;51.874;8.430;2022-11-04T03:09:03;99400.81;;;9.95;94.12
4576;BME280;2300;51.874;8.430;2022-11-04T03:11:30;99390.28;;;9.82;94.19
4576;BME280;2300;51.874;8.430;2022-11-04T03:14:00;99404.91;;;9.93;93.93
4576;BME280;2300;51.874;8.430;2022-11-04T03:16:32;99423.13;;;10.04;93.84
4576;BME280;2300;51.874;8.430;2022-11-04T03:19:06;99413.34;;;10.13;93.42
4576;BME280;2300;51.874;8.430;2022-11-04T03:21:36;99421.00;;;10.11;93.18
4576;BME280;2300;51.874;8.430;2022-11-04T03:24:05;99427.06;;;10.13;93.17
4576;BME280;2300;51.874;8.430;2022-11-04T03:26:38;99401.88;;;9.89;93.30
4576;BME280;2300;51.874;8.430;2022-11-04T03:29:14;99428.19;;;10.17;93.32
4576;BME280;2300;51.874;8.430;2022-11-04T03:31:48;99434.25;;;10.19;93.15
4576;BME280;2300;51.874;8.430;2022-11-04T03:34:17;99433.03;;;10.05;92.47
4576;BME280;2300;51.874;8.430;2022-11-04T03:36:44;99422.00;;;10.00;93.19
4576;BME280;2300;51.874;8.430;2022-11-04T03:39:11;99429.50;;;9.83;94.00
4576;BME280;2300;51.874;8.430;2022-11-04T03:41:40;99427.84;;;9.82;94.42
4576;BME280;2300;51.874;8.430;2022-11-04T03:44:08;99431.00;;;9.69;94.39
4576;BME280;2300;51.874;8.430;2022-11-04T03:46:35;99435.31;;;9.65;94.69
4576;BME280;2300;51.874;8.430;2022-11-04T03:49:04;99452.28;;;9.62;94.41
4576;BME280;2300;51.874;8.430;2022-11-04T03:51:30;99458.53;;;9.57;94.65
4576;BME280;2300;51.874;8.430;2022-11-04T03:53:57;99463.69;;;9.53;95.36
4576;BME280;2300;51.874;8.430;2022-11-04T03:56:38;99468.06;;;9.54;95.51
4576;BME280;2300;51.874;8.430;2022-11-04T03:59:21;99468.59;;;9.51;94.83
4576;BME280;2300;51.874;8.430;2022-11-04T04:01:53;99473.47;;;9.49;95.26
4576;BME280;2300;51.874;8.430;2022-11-04T04:04:26;99465.31;;;9.54;94.83
4576;BME280;2300;51.874;8.430;2022-11-04T04:06:59;99465.25;;;9.49;94.70
4576;BME280;2300;51.874;8.430;2022-11-04T04:09:31;99466.28;;;9.43;94.86
4576;BME280;2300;51.874;8.430;2022-11-04T04:12:05;99468.59;;;9.51;94.95
4576;BME280;2300;51.874;8.430;2022-11-04T04:14:39;99477.53;;;9.64;94.36
4576;BME280;2300;51.874;8.430;2022-11-04T04:17:13;99481.28;;;9.57;94.39
4576;BME280;2300;51.874;8.430;2022-11-04T04:19:46;99482.41;;;9.62;93.75
4576;BME280;2300;51.874;8.430;2022-11-04T04:22:16;99483.25;;;9.62;93.74
4576;BME280;2300;51.874;8.430;2022-11-04T04:24:47;99482.34;;;9.56;93.62
4576;BME280;2300;51.874;8.430;2022-11-04T04:27:32;99491.75;;;9.44;93.52
4576;BME280;2300;51.874;8.430;2022-11-04T04:30:02;99490.56;;;9.56;93.20
4576;BME280;2300;51.874;8.430;2022-11-04T04:32:33;99485.28;;;9.50;92.87
4576;BME280;2300;51.874;8.430;2022-11-04T04:35:02;99492.03;;;9.42;92.72
4576;BME280;2300;51.874;8.430;2022-11-04T04:37:47;99498.78;;;9.35;92.83
4576;BME280;2300;51.874;8.430;2022-11-04T04:40:16;99488.13;;;9.38;92.97
4576;BME280;2300;51.874;8.430;2022-11-04T04:43:03;99493.38;;;9.40;92.98
4576;BME280;2300;51.874;8.430;2022-11-04T04:45:49;99488.66;;;9.35;91.99
4576;BME280;2300;51.874;8.430;2022-11-04T04:48:18;99490.31;;;9.36;91.96
4576;BME280;2300;51.874;8.430;2022-11-04T04:50:48;99498.66;;;9.46;91.42
4576;BME280;2300;51.874;8.430;2022-11-04T04:53:16;99499.22;;;9.48;91.60
4576;BME280;2300;51.874;8.430;2022-11-04T04:55:43;99500.88;;;9.49;92.17
4576;BME280;2300;51.874;8.430;2022-11-04T04:58:09;99511.84;;;9.49;92.00
4576;BME280;2300;51.874;8.430;2022-11-04T05:00:36;99518.03;;;9.62;91.37
4576;BME280;2300;51.874;8.430;2022-11-04T05:03:02;99521.63;;;9.62;90.78
4576;BME280;2300;51.874;8.430;2022-11-04T05:05:29;99534.56;;;9.67;91.06
4576;BME280;2300;51.874;8.430;2022-11-04T05:08:04;99542.53;;;9.68;91.15
4576;BME280;2300;51.874;8.430;2022-11-04T05:10:31;99536.22;;;9.68;90.57
4576;BME280;2300;51.874;8.430;2022-11-04T05:12:58;99542.84;;;9.72;91.07
4576;BME280;2300;51.874;8.430;2022-11-04T05:15:42;99550.47;;;9.70;91.21
4576;BME280;2300;51.874;8.430;2022-11-04T05:18:08;99550.41;;;9.65;91.31
4576;BME280;2300;51.874;8.430;2022-11-04T05:20:35;99556.31;;;9.73;92.11
4576;BME280;2300;51.874;8.430;2022-11-04T05:23:06;99562.09;;;9.77;91.84
4576;BME280;2300;51.874;8.430;2022-11-04T05:25:32;99566.44;;;9.73;91.79
4576;BME280;2300;51.874;8.430;2022-11-04T05:27:59;99558.72;;;9.70;91.59
4576;BME280;2300;51.874;8.430;2022-11-04T05:30:27;99574.06;;;9.71;92.05
4576;BME280;2300;51.874;8.430;2022-11-04T05:32:53;99579.56;;;9.71;92.07
4576;BME280;2300;51.874;8.430;2022-11-04T05:35:20;99579.72;;;9.64;92.88
4576;BME280;2300;51.874;8.430;2022-11-04T05:37:46;99589.38;;;9.67;92.51
4576;BME280;2300;51.874;8.430;2022-11-04T05:40:14;99595.00;;;9.77;92.51
4576;BME280;2300;51.874;8.430;2022-11-04T05:42:41;99595.53;;;9.74;92.75
4576;BME280;2300;51.874;8.430;2022-11-04T05:45:08;99600.72;;;9.75;93.12
4576;BME280;2300;51.874;8.430;2022-11-04T05:47:35;99596.66;;;9.78;92.33
4576;BME280;2300;51.874;8.430;2022-11-04T05:50:01;99591.66;;;9.75;92.55
4576;BME280;2300;51.874;8.430;2022-11-04T05:52:28;99593.41;;;9.81;92.98
4576;BME280;2300;51.874;8.430;2022-11-04T05:54:54;99589.59;;;9.82;92.22
4576;BME280;2300;51.874;8.430;2022-11-04T05:57:22;99583.38;;;9.70;92.56
4576;BME280;2300;51.874;8.430;2022-11-04T05:59:49;99588.63;;;9.71;92.19
4576;BME280;2300;51.874;8.430;2022-11-04T06:02:15;99604.81;;;9.73;92.75
4576;BME280;2300;51.874;8.430;2022-11-04T06:04:42;99599.28;;;9.68;92.56
4576;BME280;2300;51.874;8.430;2022-11-04T06:07:08;99613.34;;;9.76;91.95
4576;BME280;2300;51.874;8.430;2022-11-04T06:09:36;99612.03;;;9.79;91.99
4576;BME280;2300;51.874;8.430;2022-11-04T06:12:07;99624.09;;;9.78;92.11
4576;BME280;2300;51.874;8.430;2022-11-04T06:14:35;99625.75;;;9.79;92.70
4576;BME280;2300;51.874;8.430;2022-11-04T06:17:02;99638.34;;;9.80;92.23
4576;BME280;2300;51.874;8.430;2022-11-04T06:19:28;99634.16;;;9.72;92.70
4576;BME280;2300;51.874;8.430;2022-11-04T06:21:55;99654.31;;;9.83;92.02
4576;BME280;2300;51.874;8.430;2022-11-04T06:24:22;99665.34;;;9.88;92.16
4576;BME280;2300;51.874;8.430;2022-11-04T06:26:48;99670.84;;;9.88;92.25
4576;BME280;2300;51.874;8.430;2022-11-04T06:29:15;99666.03;;;9.78;92.42
4576;BME280;2300;51.874;8.430;2022-11-04T06:31:43;99658.56;;;9.74;92.96
4576;BME280;2300;51.874;8.430;2022-11-04T06:34:09;99675.09;;;9.79;92.33
4576;BME280;2300;51.874;8.430;2022-11-04T06:36:36;99670.44;;;9.79;92.14
4576;BME280;2300;51.874;8.430;2022-11-04T06:39:03;99661.19;;;9.85;91.84
4576;BME280;2300;51.874;8.430;2022-11-04T06:41:30;99672.44;;;9.84;91.94
4576;BME280;2300;51.874;8.430;2022-11-04T06:43:57;99671.97;;;9.92;92.10
4576;BME280;2300;51.874;8.430;2022-11-04T06:46:25;99679.13;;;9.93;92.02
4576;BME280;2300;51.874;8.430;2022-11-04T06:48:54;99671.75;;;9.77;92.06
4576;BME280;2300;51.874;8.430;2022-11-04T06:51:22;99688.72;;;9.74;92.25
4576;BME280;2300;51.874;8.430;2022-11-04T06:53:48;99685.53;;;9.82;92.53
4576;BME280;2300;51.874;8.430;2022-11-04T06:56:15;99686.91;;;9.79;93.08
4576;BME280;2300;51.874;8.430;2022-11-04T06:58:41;99693.19;;;9.80;92.13
4576;BME280;2300;51.874;8.430;2022-11-04T07:01:08;99691.03;;;9.82;92.13
4576;BME280;2300;51.874;8.430;2022-11-04T07:03:35;99690.50;;;9.85;91.51
4576;BME280;2300;51.874;8.430;2022-11-04T07:06:06;99691.03;;;9.82;91.93
4576;BME280;2300;51.874;8.430;2022-11-04T07:08:34;99678.84;;;9.73;91.76
4576;BME280;2300;51.874;8.430;2022-11-04T07:11:01;99691.53;;;9.79;91.99
4576;BME280;2300;51.874;8.430;2022-11-04T07:13:28;99693.19;;;9.80;92.22
4576;BME280;2300;51.874;8.430;2022-11-04T07:15:54;99698.44;;;9.81;92.35
4576;BME280;2300;51.874;8.430;2022-11-04T07:18:21;99700.41;;;9.86;91.20
4576;BME280;2300;51.874;8.430;2022-11-04T07:20:47;99700.41;;;9.86;91.91
4576;BME280;2300;51.874;8.430;2022-11-04T07:23:15;99700.34;;;9.81;91.60
4576;BME280;2300;51.874;8.430;2022-11-04T07:25:42;99709.72;;;9.85;91.29
4576;BME280;2300;51.874;8.430;2022-11-04T07:28:08;99709.72;;;9.85;92.13
4576;BME280;2300;51.874;8.430;2022-11-04T07:30:35;99720.03;;;9.94;91.36
4576;BME280;2300;51.874;8.430;2022-11-04T07:33:02;99721.09;;;9.93;91.22
4576;BME280;2300;51.874;8.430;2022-11-04T07:35:28;99724.34;;;9.90;91.28
4576;BME280;2300;51.874;8.430;2022-11-04T07:37:55;99709.38;;;9.98;91.81
4576;BME280;2300;51.874;8.430;2022-11-04T07:40:23;99716.59;;;10.04;90.75
4576;BME280;2300;51.874;8.430;2022-11-04T07:42:49;99714.94;;;10.03;91.12
4576;BME280;2300;51.874;8.430;2022-11-04T07:45:16;99715.91;;;10.14;90.50
4576;BME280;2300;51.874;8.430;2022-11-04T07:47:43;99722.31;;;10.19;90.30
4576;BME280;2300;51.874;8.430;2022-11-04T07:50:09;99731.19;;;10.26;90.31
4576;BME280;2300;51.874;8.430;2022-11-04T07:52:36;99725.72;;;10.26;89.86
4576;BME280;2300;51.874;8.430;2022-11-04T07:55:03;99725.84;;;10.36;89.81
4576;BME280;2300;51.874;8.430;2022-11-04T07:57:31;99730.84;;;10.39;89.52
4576;BME280;2300;51.874;8.430;2022-11-04T07:59:57;99742.66;;;10.40;89.18
4576;BME280;2300;51.874;8.430;2022-11-04T08:02:24;99737.41;;;10.38;88.98
4576;BME280;2300;51.874;8.430;2022-11-04T08:04:51;99747.13;;;10.46;88.90
4576;BME280;2300;51.874;8.430;2022-11-04T08:07:17;99723.25;;;10.47;89.00
4576;BME280;2300;51.874;8.430;2022-11-04T08:09:44;99736.28;;;10.56;88.96
4576;BME280;2300;51.874;8.430;2022-11-04T08:12:10;99737.25;;;10.67;88.25
4576;BME280;2300;51.874;8.430;2022-11-04T08:14:38;99754.84;;;10.71;87.19
4576;BME280;2300;51.874;8.430;2022-11-04T08:17:05;99745.72;;;10.65;87.36
4576;BME280;2300;51.874;8.430;2022-11-04T08:19:32;99754.03;;;10.70;86.88
4576;BME280;2300;51.874;8.430;2022-11-04T08:21:58;99759.50;;;10.70;87.20
4576;BME280;2300;51.874;8.430;2022-11-04T08:24:25;99748.22;;;10.67;86.51
4576;BME280;2300;51.874;8.430;2022-11-04T08:26:51;99761.66;;;10.90;86.37
4576;BME280;2300;51.874;8.430;2022-11-04T08:29:18;99762.25;;;10.92;86.24
4576;BME280;2300;51.874;8.430;2022-11-04T08:31:46;99769.47;;;10.98;86.51
4576;BME280;2300;51.874;8.430;2022-11-04T08:34:12;99760.72;;;11.01;86.05
4576;BME280;2300;51.874;8.430;2022-11-04T08:36:41;99759.63;;;11.02;85.26
4576;BME280;2300;51.874;8.430;2022-11-04T08:39:08;99752.53;;;11.06;85.15
4576;BME280;2300;51.874;8.430;2022-11-04T08:41:36;99757.72;;;11.30;85.29
4576;BME280;2300;51.874;8.430;2022-11-04T08:44:03;99745.31;;;11.54;84.89
4576;BME280;2300;51.874;8.430;2022-11-04T08:46:32;99763.72;;;11.80;83.43
4576;BME280;2300;51.874;8.430;2022-11-04T08:49:00;99757.47;;;11.90;83.06
4576;BME280;2300;51.874;8.430;2022-11-04T08:51:29;99755.81;;;11.89;82.30
4576;BME280;2300;51.874;8.430;2022-11-04T08:53:56;99762.44;;;11.93;82.29
4576;BME280;2300;51.874;8.430;2022-11-04T08:56:25;99762.00;;;11.74;81.70
4576;BME280;2300;51.874;8.430;2022-11-04T08:58:52;99769.13;;;11.70;81.47
4576;BME280;2300;51.874;8.430;2022-11-04T09:01:21;99772.44;;;11.72;81.96
4576;BME280;2300;51.874;8.430;2022-11-04T09:03:48;99769.19;;;11.75;82.16
4576;BME280;2300;51.874;8.430;2022-11-04T09:06:19;99763.84;;;11.63;81.60
4576;BME280;2300;51.874;8.430;2022-11-04T09:08:47;99752.84;;;11.63;80.90
4576;BME280;2300;51.874;8.430;2022-11-04T09:11:15;99751.06;;;11.79;81.01
4576;BME280;2300;51.874;8.430;2022-11-04T09:13:42;99751.00;;;12.06;81.05
4576;BME280;2300;51.874;8.430;2022-11-04T09:16:10;99754.59;;;12.11;80.06
4576;BME280;2300;51.874;8.430;2022-11-04T09:18:37;99750.56;;;12.29;79.42
4576;BME280;2300;51.874;8.430;2022-11-04T09:21:05;99761.34;;;12.36;78.72
4576;BME280;2300;51.874;8.430;2022-11-04T09:23:33;99756.34;;;12.23;78.07
4576;BME280;2300;51.874;8.430;2022-11-04T09:26:04;99759.13;;;12.28;78.60
4576;BME280;2300;51.874;8.430;2022-11-04T09:28:30;99756.41;;;12.33;78.74
4576;BME280;2300;51.874;8.430;2022-11-04T09:30:57;99764.47;;;12.54;78.26
4576;BME280;2300;51.874;8.430;2022-11-04T09:33:24;99763.72;;;12.64;77.88
4576;BME280;2300;51.874;8.430;2022-11-04T09:35:54;99754.78;;;12.42;77.52
4576;BME280;2300;51.874;8.430;2022-11-04T09:38:21;99758.63;;;12.41;78.05
4576;BME280;2300;51.874;8.430;2022-11-04T09:40:49;99756.44;;;12.38;78.39
4576;BME280;2300;51.874;8.430;2022-11-04T09:43:25;99768.75;;;12.30;79.01
4576;BME280;2300;51.874;8.430;2022-11-04T09:45:54;99775.94;;;12.31;78.68
4576;BME280;2300;51.874;8.430;2022-11-04T09:48:23;99765.69;;;12.22;78.98
4576;BME280;2300;51.874;8.430;2022-11-04T09:50:55;99769.63;;;12.36;78.34
4576;BME280;2300;51.874;8.430;2022-11-04T09:53:26;99764.00;;;12.21;78.91
4576;BME280;2300;51.874;8.430;2022-11-04T09:55:56;99772.56;;;12.24;79.14
4576;BME280;2300;51.874;8.430;2022-11-04T09:58:24;99777.56;;;12.27;79.27
4576;BME280;2300;51.874;8.430;2022-11-04T10:00:56;99781.13;;;12.28;79.44
4576;BME280;2300;51.874;8.430;2022-11-04T10:03:38;99787.00;;;12.41;78.65
4576;BME280;2300;51.874;8.430;2022-11-04T10:06:18;99790.59;;;12.42;78.25
4576;BME280;2300;51.874;8.430;2022-11-04T10:09:03;99787.84;;;12.42;78.39
4576;BME280;2300;51.874;8.430;2022-11-04T10:11:37;99783.34;;;12.31;77.69
4576;BME280;2300;51.874;8.430;2022-11-04T10:14:21;99785.03;;;12.37;78.34
4576;BME280;2300;51.874;8.430;2022-11-04T10:17:00;99794.78;;;12.13;78.33
4576;BME280;2300;51.874;8.430;2022-11-04T10:19:45;99807.28;;;12.30;78.58
4576;BME280;2300;51.874;8.430;2022-11-04T10:22:21;99814.25;;;12.38;78.98
4576;BME280;2300;51.874;8.430;2022-11-04T10:24:59;99818.69;;;12.49;78.05
4576;BME280;2300;51.874;8.430;2022-11-04T10:27:32;99817.59;;;12.50;78.44
4576;BME280;2300;51.874;8.430;2022-11-04T10:30:01;99826.72;;;12.55;78.42
4576;BME280;2300;51.874;8.430;2022-11-04T10:32:33;99823.03;;;12.82;78.52
4576;BME280;2300;51.874;8.430;2022-11-04T10:35:04;99818.69;;;12.91;77.64
4576;BME280;2300;51.874;8.430;2022-11-04T10:37:35;99820.59;;;12.90;77.95
4576;BME280;2300;51.874;8.430;2022-11-04T10:40:15;99808.22;;;12.88;77.39
4576;BME280;2300;51.874;8.430;2022-11-04T10:42:46;99817.06;;;12.90;76.67
4576;BME280;2300;51.874;8.430;2022-11-04T10:45:13;99823.38;;;12.95;77.03
4576;BME280;2300;51.874;8.430;2022-11-04T10:47:44;99823.97;;;12.98;77.52
4576;BME280;2300;51.874;8.430;2022-11-04T10:50:21;99823.38;;;12.95;76.97
4576;BME280;2300;51.874;8.430;2022-11-04T10:52:49;99824.75;;;12.88;76.69
4576;BME280;2300;51.874;8.430;2022-11-04T10:55:26;99833.78;;;12.83;76.72
4576;BME280;2300;51.874;8.430;2022-11-04T10:57:57;99838.41;;;12.73;77.66
4576;BME280;2300;51.874;8.430;2022-11-04T11:00:36;99833.03;;;12.93;77.00
4576;BME280;2300;51.874;8.430;2022-11-04T11:03:22;99831.16;;;13.09;76.11
4576;BME280;2300;51.874;8.430;2022-11-04T11:05:50;99823.59;;;12.84;76.09
4576;BME280;2300;51.874;8.430;2022-11-04T11:08:27;99801.31;;;12.90;76.53
4576;BME280;2300;51.874;8.430;2022-11-04T11:10:54;99836.09;;;13.02;76.43
4576;BME280;2300;51.874;8.430;2022-11-04T11:13:27;99834.41;;;12.95;76.13
4576;BME280;2300;51.874;8.430;2022-11-04T11:16:09;99837.34;;;12.79;77.17
4576;BME280;2300;51.874;8.430;2022-11-04T11:18:37;99828.09;;;12.53;76.86
4576;BME280;2300;51.874;8.430;2022-11-04T11:21:09;99835.88;;;12.66;77.12
4576;BME280;2300;51.874;8.430;2022-11-04T11:23:42;99842.25;;;12.72;77.84
4576;BME280;2300;51.874;8.430;2022-11-04T11:26:12;99847.28;;;12.80;77.06
4576;BME280;2300;51.874;8.430;2022-11-04T11:28:47;99838.41;;;12.73;76.49
4576;BME280;2300;51.874;8.430;2022-11-04T11:31:15;99836.91;;;12.55;76.89
4576;BME280;2300;51.874;8.430;2022-11-04T11:33:49;99835.78;;;12.51;77.28
4576;BME280;2300;51.874;8.430;2022-11-04T11:36:21;99837.81;;;12.66;77.88
4576;BME280;2300;51.874;8.430;2022-11-04T11:39:03;99840.50;;;12.98;76.73
4576;BME280;2300;51.874;8.430;2022-11-04T11:41:34;99842.28;;;13.29;75.83
4576;BME280;2300;51.874;8.430;2022-11-04T11:44:23;99824.06;;;13.28;75.58
4576;BME280;2300;51.874;8.430;2022-11-04T11:46:53;99834.03;;;13.39;74.96
4576;BME280;2300;51.874;8.430;2022-11-04T11:49:24;99825.50;;;13.46;74.72
4576;BME280;2300;51.874;8.430;2022-11-04T11:51:53;99821.34;;;13.43;74.78
4576;BME280;2300;51.874;8.430;2022-11-04T11:54:24;99818.56;;;13.28;75.10
4576;BME280;2300;51.874;8.430;2022-11-04T11:56:53;99831.50;;;13.27;74.72
4576;BME280;2300;51.874;8.430;2022-11-04T11:59:27;99827.16;;;13.36;75.50
4576;BME280;2300;51.874;8.430;2022-11-04T12:02:03;99825.78;;;13.49;74.10
4576;BME280;2300;51.874;8.430;2022-11-04T12:04:33;99828.03;;;13.67;73.89
4576;BME280;2300;51.874;8.430;2022-11-04T12:07:07;99828.31;;;13.71;72.98
4576;BME280;2300;51.874;8.430;2022-11-04T12:09:40;99826.91;;;13.73;73.55
4576;BME280;2300;51.874;8.430;2022-11-04T12:12:36;99825.00;;;13.74;74.03
4576;BME280;2300;51.874;8.430;2022-11-04T12:15:17;99823.63;;;13.81;74.56
4576;BME280;2300;51.874;8.430;2022-11-04T12:18:04;99835.81;;;14.11;73.74
4576;BME280;2300;51.874;8.430;2022-11-04T12:20:44;99832.53;;;14.14;73.00
4576;BME280;2300;51.874;8.430;2022-11-04T12:23:17;99815.94;;;13.94;71.83
4576;BME280;2300;51.874;8.430;2022-11-04T12:25:54;99818.13;;;13.76;72.68
4576;BME280;2300;51.874;8.430;2022-11-04T12:28:30;99827.47;;;13.70;72.76
4576;BME280;2300;51.874;8.430;2022-11-04T12:31:08;99830.78;;;13.62;73.62
4576;BME280;2300;51.874;8.430;2022-11-04T12:33:42;99832.97;;;13.50;73.08
4576;BME280;2300;51.874;8.430;2022-11-04T12:36:24;99835.91;;;13.23;74.21
4576;BME280;2300;51.874;8.430;2022-11-04T12:39:03;99840.13;;;13.41;74.04
4576;BME280;2300;51.874;8.430;2022-11-04T12:41:41;99846.19;;;13.48;73.77
4576;BME280;2300;51.874;8.430;2022-11-04T12:44:21;99847.59;;;13.56;73.22
4576;BME280;2300;51.874;8.430;2022-11-04T12:46:57;99834.06;;;13.54;72.78
4576;BME280;2300;51.874;8.430;2022-11-04T12:49:41;99847.88;;;13.64;72.60
4576;BME280;2300;51.874;8.430;2022-11-04T12:52:23;99852.59;;;13.79;72.85
4576;BME280;2300;51.874;8.430;2022-11-04T12:55:04;99857.31;;;13.89;72.01
4576;BME280;2300;51.874;8.430;2022-11-04T12:57:40;99847.91;;;13.79;71.43
4576;BME280;2300;51.874;8.430;2022-11-04T13:00:13;99856.53;;;14.03;71.48
4576;BME280;2300;51.874;8.430;2022-11-04T13:02:46;99852.63;;;13.94;70.77
4576;BME280;2300;51.874;8.430;2022-11-04T13:05:25;99854.31;;;14.15;72.51
4576;BME280;2300;51.874;8.430;2022-11-04T13:07:56;99855.66;;;13.93;72.05
4576;BME280;2300;51.874;8.430;2022-11-04T13:10:36;99871.41;;;13.97;72.44
4576;BME280;2300;51.874;8.430;2022-11-04T13:13:05;99784.75;;;13.73;72.67
4576;BME280;2300;51.874;8.430;2022-11-04T13:15:39;99854.03;;;14.27;71.54
4576;BME280;2300;51.874;8.430;2022-11-04T13:18:19;99866.75;;;14.18;72.19
4576;BME280;2300;51.874;8.430;2022-11-04T13:20:51;99862.31;;;14.12;71.95
4576;BME280;2300;51.874;8.430;2022-11-04T13:23:24;99870.88;;;14.15;71.71
4576;BME280;2300;51.874;8.430;2022-11-04T13:25:54;99868.38;;;13.99;71.78
4576;BME280;2300;51.874;8.430;2022-11-04T13:28:23;99884.06;;;13.78;72.08
4576;BME280;2300;51.874;8.430;2022-11-04T13:30:56;99875.81;;;13.83;72.36
4576;BME280;2300;51.874;8.430;2022-11-04T13:33:32;99872.75;;;13.85;72.55
4576;BME280;2300;51.874;8.430;2022-11-04T13:36:07;99867.53;;;13.88;72.66
4576;BME280;2300;51.874;8.430;2022-11-04T13:38:40;99876.91;;;13.92;72.59
4576;BME280;2300;51.874;8.430;2022-11-04T13:41:33;99875.84;;;14.03;71.82
4576;BME280;2300;51.874;8.430;2022-11-04T13:44:05;99874.19;;;14.02;71.58
4576;BME280;2300;51.874;8.430;2022-11-04T13:46:38;99870.56;;;13.87;71.10